Time;durP1;ratioP1;P1;durP2;ratioP2;P2;SDS_P1;SDS_P2;PMS_P1;PMS_P2;Temp;Humidity;BMP_temperature;BMP_pressure;BME280_temperature;BME280_humidity;BME280_pressure;Samples;Min_cycle;Max_cycle;Signal;HPM_P1;HPM_P2
2023/09/12 00:00:44;;;;;;;11.93;8.40;;;26.80;53.60;;;;;;5013164;28;20319;-42
2023/09/12 00:03:11;;;;;;;9.80;8.07;;;26.70;54.10;;;;;;5009418;28;20320;-42
2023/09/12 00:05:36;;;;;;;10.80;8.73;;;26.60;53.90;;;;;;5012673;28;20194;-42
2023/09/12 00:08:03;;;;;;;11.90;8.80;;;26.40;54.50;;;;;;5013346;28;20496;-41
2023/09/12 00:10:29;;;;;;;10.00;7.83;;;25.60;56.50;;;;;;5012810;28;20229;-44
2023/09/12 00:12:55;;;;;;;9.97;8.40;;;25.60;56.80;;;;;;5012348;28;20527;-42
2023/09/12 00:15:21;;;;;;;9.70;8.77;;;25.70;56.20;;;;;;5010459;28;20564;-44
2023/09/12 00:17:48;;;;;;;9.03;8.13;;;25.90;56.00;;;;;;5006504;28;20205;-45
2023/09/12 00:20:14;;;;;;;12.43;7.90;;;26.00;55.50;;;;;;5008677;28;20190;-43
2023/09/12 00:22:39;;;;;;;10.87;7.80;;;26.10;55.40;;;;;;5008301;28;20455;-43
2023/09/12 00:25:06;;;;;;;9.93;8.47;;;26.20;55.20;;;;;;5008542;28;20194;-44
2023/09/12 00:27:31;;;;;;;11.50;8.33;;;25.80;55.40;;;;;;5011244;28;20308;-43
2023/09/12 00:29:57;;;;;;;9.10;8.17;;;25.70;56.40;;;;;;5009092;28;20481;-44
2023/09/12 00:32:22;;;;;;;12.80;8.97;;;25.80;56.20;;;;;;5007103;28;20667;-44
2023/09/12 00:34:48;;;;;;;11.93;8.03;;;25.70;55.90;;;;;;5011963;28;20189;-44
2023/09/12 00:37:13;;;;;;;10.13;8.57;;;25.80;55.90;;;;;;5010164;28;20204;-45
2023/09/12 00:39:39;;;;;;;8.33;7.50;;;25.90;55.40;;;;;;5005962;28;21990;-44
2023/09/12 00:42:07;;;;;;;9.43;8.30;;;26.00;55.60;;;;;;5006469;28;20286;-43
2023/09/12 00:44:33;;;;;;;9.97;7.80;;;26.00;55.40;;;;;;5002352;28;20205;-48
2023/09/12 00:47:00;;;;;;;13.30;8.00;;;25.70;55.90;;;;;;5008324;28;20520;-43
2023/09/12 00:49:27;;;;;;;12.07;8.23;;;25.60;56.10;;;;;;5004563;28;20309;-44
2023/09/12 00:51:56;;;;;;;11.70;8.40;;;25.80;55.80;;;;;;5007678;28;20445;-46
2023/09/12 00:54:21;;;;;;;9.10;8.20;;;26.00;55.50;;;;;;5007600;28;20523;-43
2023/09/12 00:56:47;;;;;;;13.50;8.70;;;26.20;54.80;;;;;;5007184;28;20878;-44
2023/09/12 00:59:15;;;;;;;11.30;8.30;;;26.10;54.90;;;;;;5002381;28;20197;-44
2023/09/12 01:01:41;;;;;;;9.40;7.40;;;26.30;54.60;;;;;;5007762;28;20198;-44
2023/09/12 01:04:07;;;;;;;9.67;8.03;;;26.40;54.60;;;;;;5011044;28;20443;-43
2023/09/12 01:06:34;;;;;;;10.17;7.83;;;26.40;54.20;;;;;;5004136;28;20205;-43
2023/09/12 01:09:00;;;;;;;8.73;7.70;;;26.40;54.10;;;;;;5010843;28;20488;-44
2023/09/12 01:11:26;;;;;;;12.07;8.97;;;26.50;54.00;;;;;;5005994;28;20504;-43
2023/09/12 01:13:52;;;;;;;8.50;7.60;;;26.20;54.00;;;;;;5009571;28;20445;-44
2023/09/12 01:16:17;;;;;;;11.10;7.80;;;26.10;54.50;;;;;;5008343;28;20433;-44
2023/09/12 01:18:45;;;;;;;15.27;7.53;;;26.00;54.60;;;;;;5004389;28;20266;-43
2023/09/12 01:21:17;;;;;;;11.90;8.10;;;26.00;54.90;;;;;;5002028;28;20190;-45
2023/09/12 01:23:48;;;;;;;10.20;8.87;;;26.10;54.90;;;;;;5005286;28;20875;-43
2023/09/12 01:26:38;;;;;;;8.27;7.43;;;26.20;53.90;;;;;;5010173;28;20510;-46
2023/09/12 01:29:05;;;;;;;8.93;8.13;;;26.20;54.20;;;;;;5010082;28;20488;-43
2023/09/12 01:31:33;;;;;;;11.87;7.63;;;26.30;54.10;;;;;;5009212;28;20468;-44
2023/09/12 01:34:09;;;;;;;10.27;8.70;;;26.40;53.90;;;;;;5006837;28;20451;-44
2023/09/12 01:36:34;;;;;;;9.80;8.53;;;26.40;53.60;;;;;;5008228;28;20453;-44
2023/09/12 01:39:00;;;;;;;9.53;8.50;;;26.30;53.80;;;;;;5006461;28;20437;-44
2023/09/12 01:41:27;;;;;;;8.70;7.83;;;26.30;54.10;;;;;;5008682;28;20313;-44
2023/09/12 01:43:54;;;;;;;13.00;8.47;;;26.20;53.80;;;;;;5008870;28;20182;-43
2023/09/12 01:46:21;;;;;;;9.87;8.23;;;26.30;54.00;;;;;;5003185;28;20916;-45
2023/09/12 01:48:51;;;;;;;8.60;7.80;;;26.30;53.70;;;;;;5003616;28;20448;-44
2023/09/12 01:51:18;;;;;;;9.10;8.17;;;26.30;53.80;;;;;;5010084;28;20924;-44
2023/09/12 01:53:45;;;;;;;11.70;8.77;;;26.30;53.90;;;;;;5010945;28;21062;-46
2023/09/12 01:56:13;;;;;;;10.30;7.27;;;26.40;53.90;;;;;;5010472;28;20506;-43
2023/09/12 01:58:38;;;;;;;12.67;8.40;;;26.40;53.60;;;;;;5008943;28;20445;-43
2023/09/12 02:01:04;;;;;;;10.13;7.67;;;26.40;53.60;;;;;;5013459;28;20451;-46
2023/09/12 02:03:30;;;;;;;8.80;7.97;;;26.50;53.40;;;;;;5012415;28;20234;-44
2023/09/12 02:05:56;;;;;;;8.77;7.97;;;26.50;53.40;;;;;;5014234;28;20194;-45
2023/09/12 02:08:21;;;;;;;13.03;8.03;;;26.40;53.50;;;;;;5009126;28;20221;-44
2023/09/12 02:10:47;;;;;;;10.33;8.20;;;26.20;53.50;;;;;;5013778;28;20826;-44
2023/09/12 02:13:13;;;;;;;8.20;7.40;;;26.20;54.10;;;;;;5010893;28;20190;-43
2023/09/12 02:15:38;;;;;;;9.70;8.73;;;26.00;54.00;;;;;;5009627;28;20276;-43
2023/09/12 02:18:04;;;;;;;11.50;8.70;;;25.90;54.30;;;;;;5011237;28;20193;-43
2023/09/12 02:20:30;;;;;;;10.80;8.60;;;25.30;55.40;;;;;;5011663;28;20201;-43
2023/09/12 02:22:56;;;;;;;9.80;8.13;;;25.10;56.70;;;;;;5003828;28;20213;-47
2023/09/12 02:25:21;;;;;;;10.60;8.20;;;24.90;56.70;;;;;;5011920;28;20441;-43
2023/09/12 02:27:47;;;;;;;10.00;8.30;;;25.10;57.00;;;;;;5013853;28;20268;-43
2023/09/12 02:30:12;;;;;;;10.07;8.17;;;25.20;56.20;;;;;;5009173;28;20316;-43
2023/09/12 02:32:38;;;;;;;11.03;8.23;;;25.30;56.00;;;;;;5009613;28;20756;-45
2023/09/12 02:35:04;;;;;;;11.63;8.73;;;25.10;56.60;;;;;;5008244;28;20229;-44
2023/09/12 02:37:29;;;;;;;11.10;7.83;;;25.00;56.60;;;;;;5010787;28;20725;-43
2023/09/12 02:39:55;;;;;;;8.83;7.97;;;24.90;56.70;;;;;;5009695;28;20198;-45
2023/09/12 02:42:21;;;;;;;8.80;7.97;;;25.00;56.50;;;;;;5008090;28;20206;-44
2023/09/12 02:44:47;;;;;;;7.67;6.97;;;25.20;56.50;;;;;;5007970;28;20205;-46
2023/09/12 02:47:13;;;;;;;11.53;8.23;;;25.30;56.20;;;;;;5006410;28;20190;-43
2023/09/12 02:49:38;;;;;;;11.90;10.07;;;25.40;55.80;;;;;;5009629;28;20499;-43
2023/09/12 02:52:04;;;;;;;8.50;7.47;;;25.40;55.90;;;;;;5011022;28;20221;-43
2023/09/12 02:54:29;;;;;;;13.13;7.80;;;25.40;55.80;;;;;;5007758;28;20190;-46
2023/09/12 02:56:55;;;;;;;9.80;8.03;;;25.40;55.70;;;;;;5009420;28;20190;-43
2023/09/12 02:59:21;;;;;;;8.80;7.17;;;25.40;55.50;;;;;;5010060;28;20263;-46
2023/09/12 03:01:47;;;;;;;9.00;7.57;;;25.30;55.90;;;;;;5008790;28;20205;-44
2023/09/12 03:04:12;;;;;;;9.57;8.07;;;25.40;55.50;;;;;;5011741;28;20444;-44
2023/09/12 03:06:38;;;;;;;12.43;8.63;;;25.40;55.60;;;;;;5006538;28;20277;-44
2023/09/12 03:09:04;;;;;;;9.40;8.00;;;25.40;55.50;;;;;;5010203;28;20229;-43
2023/09/12 03:11:29;;;;;;;8.47;7.60;;;25.20;55.70;;;;;;5007823;28;20191;-43
2023/09/12 03:13:55;;;;;;;8.70;7.77;;;25.10;56.30;;;;;;5009892;28;20230;-43
2023/09/12 03:16:21;;;;;;;8.77;7.63;;;25.10;56.30;;;;;;5010312;28;20198;-44
2023/09/12 03:18:46;;;;;;;11.13;7.63;;;25.10;56.20;;;;;;5008298;28;20198;-44
2023/09/12 03:21:12;;;;;;;15.57;8.50;;;25.30;55.80;;;;;;5009535;28;20220;-43
2023/09/12 03:23:37;;;;;;;9.40;7.17;;;25.30;55.70;;;;;;5007956;28;20202;-44
2023/09/12 03:26:06;;;;;;;10.23;8.37;;;25.40;55.00;;;;;;5000839;28;20230;-43
2023/09/12 03:28:32;;;;;;;9.87;7.97;;;25.30;55.40;;;;;;5011465;28;20198;-43
2023/09/12 03:31:11;;;;;;;11.33;8.00;;;25.30;56.20;;;;;;5005116;28;20599;-43
2023/09/12 03:33:37;;;;;;;10.00;8.20;;;25.40;55.40;;;;;;5006394;28;21282;-42
2023/09/12 03:36:03;;;;;;;9.47;8.20;;;25.50;54.90;;;;;;5008638;28;20502;-42
2023/09/12 03:38:29;;;;;;;11.60;8.40;;;25.50;54.70;;;;;;5010141;28;20476;-43
2023/09/12 03:40:54;;;;;;;9.90;7.90;;;25.40;55.30;;;;;;5008953;28;20292;-42
2023/09/12 03:43:20;;;;;;;12.10;8.00;;;25.30;55.10;;;;;;5010130;28;20204;-42
2023/09/12 03:45:45;;;;;;;12.87;8.00;;;25.30;55.50;;;;;;5007329;28;20202;-42
2023/09/12 03:48:11;;;;;;;10.33;8.30;;;25.30;55.20;;;;;;5010243;28;20677;-43
2023/09/12 03:50:36;;;;;;;12.87;7.60;;;25.40;55.10;;;;;;5011790;28;20221;-42
2023/09/12 03:53:02;;;;;;;15.70;8.23;;;25.50;54.80;;;;;;5011013;28;20193;-43
2023/09/12 03:55:28;;;;;;;13.43;7.60;;;25.60;54.80;;;;;;5001548;28;20195;-44
2023/09/12 03:57:53;;;;;;;10.90;7.90;;;25.60;54.60;;;;;;5011760;28;20543;-43
2023/09/12 04:00:21;;;;;;;15.50;7.63;;;25.60;54.70;;;;;;5009673;28;20276;-45
2023/09/12 04:02:47;;;;;;;11.27;8.20;;;25.70;54.50;;;;;;5009705;28;20759;-42
2023/09/12 04:05:14;;;;;;;12.13;7.60;;;25.70;54.20;;;;;;5011906;28;20484;-42
2023/09/12 04:07:39;;;;;;;10.87;7.40;;;25.70;53.90;;;;;;5013023;28;20247;-42
2023/09/12 04:10:05;;;;;;;11.87;8.37;;;25.70;54.30;;;;;;5013048;28;20481;-43
2023/09/12 04:12:31;;;;;;;8.73;7.67;;;25.70;54.30;;;;;;5012080;28;20193;-42
2023/09/12 04:14:56;;;;;;;15.87;8.37;;;25.50;54.20;;;;;;5011500;28;20236;-42
2023/09/12 04:17:22;;;;;;;9.27;8.10;;;25.50;54.30;;;;;;5010319;28;20186;-45
2023/09/12 04:19:48;;;;;;;11.07;8.30;;;25.40;54.70;;;;;;5010837;28;20202;-44
2023/09/12 04:22:13;;;;;;;10.97;8.20;;;25.20;55.00;;;;;;5012360;28;20198;-44
2023/09/12 04:24:39;;;;;;;11.13;7.40;;;25.30;54.90;;;;;;5009548;28;20194;-42
2023/09/12 04:27:05;;;;;;;7.97;7.10;;;25.30;54.80;;;;;;5011030;28;20272;-42
2023/09/12 04:29:34;;;;;;;9.17;8.07;;;25.00;55.20;;;;;;5012053;28;20226;-42
2023/09/12 04:32:01;;;;;;;11.47;8.37;;;25.00;55.60;;;;;;5012671;28;20428;-44
2023/09/12 04:34:26;;;;;;;10.77;8.73;;;25.00;55.30;;;;;;5012360;28;20855;-45
2023/09/12 04:36:53;;;;;;;10.90;7.23;;;25.20;55.20;;;;;;5012770;28;20441;-43
2023/09/12 04:39:18;;;;;;;8.13;7.27;;;25.20;54.80;;;;;;5004798;28;20201;-44
2023/09/12 04:41:44;;;;;;;9.50;7.73;;;25.20;55.20;;;;;;5009429;28;20536;-44
2023/09/12 04:44:10;;;;;;;9.03;7.90;;;24.90;55.40;;;;;;5009287;28;20213;-46
2023/09/12 04:46:36;;;;;;;13.83;8.53;;;24.80;55.80;;;;;;5008978;28;20251;-44
2023/09/12 04:49:01;;;;;;;8.90;7.97;;;24.70;55.80;;;;;;5007975;28;20575;-42
2023/09/12 04:51:27;;;;;;;8.80;7.90;;;24.60;56.70;;;;;;5006688;28;20221;-43
2023/09/12 04:53:52;;;;;;;11.20;8.43;;;24.40;56.60;;;;;;5006885;28;20235;-44
2023/09/12 04:56:18;;;;;;;9.87;8.07;;;24.50;56.70;;;;;;4999273;28;20289;-41
2023/09/12 04:58:44;;;;;;;11.07;6.80;;;24.70;56.70;;;;;;5007719;28;20544;-42
2023/09/12 05:01:09;;;;;;;9.93;6.57;;;24.70;56.40;;;;;;5008329;28;20206;-43
2023/09/12 05:03:36;;;;;;;10.07;7.80;;;24.90;56.40;;;;;;5004889;28;20279;-45
2023/09/12 05:06:03;;;;;;;11.60;8.40;;;25.00;55.80;;;;;;5005380;28;20456;-42
2023/09/12 05:08:29;;;;;;;21.20;7.73;;;25.10;55.60;;;;;;5007172;28;20457;-42
2023/09/12 05:10:54;;;;;;;9.77;7.57;;;25.20;55.30;;;;;;5002515;28;20484;-44
2023/09/12 05:13:20;;;;;;;11.93;8.27;;;25.20;55.00;;;;;;5008437;28;20221;-43
2023/09/12 05:15:47;;;;;;;8.53;7.83;;;25.40;55.50;;;;;;5007617;28;20205;-43
2023/09/12 05:18:12;;;;;;;14.03;8.87;;;25.40;54.80;;;;;;5006692;28;20221;-42
2023/09/12 05:20:38;;;;;;;9.70;7.87;;;25.40;54.50;;;;;;5008154;28;20476;-46
2023/09/12 05:23:04;;;;;;;8.47;7.50;;;25.50;54.50;;;;;;5007909;28;20225;-45
2023/09/12 05:25:30;;;;;;;12.40;8.67;;;25.50;54.50;;;;;;5006297;28;20643;-43
2023/09/12 05:27:56;;;;;;;11.17;7.73;;;25.50;54.30;;;;;;5006544;28;20502;-44
2023/09/12 05:30:22;;;;;;;13.83;9.07;;;25.50;54.10;;;;;;5006292;28;20484;-43
2023/09/12 05:32:47;;;;;;;11.10;8.00;;;25.40;54.20;;;;;;5006699;28;20822;-43
2023/09/12 05:35:13;;;;;;;9.07;7.97;;;25.30;54.60;;;;;;5011570;28;20448;-43
2023/09/12 05:37:39;;;;;;;10.13;8.50;;;25.30;54.70;;;;;;5009987;28;20638;-42
2023/09/12 05:40:05;;;;;;;14.03;7.70;;;25.30;54.60;;;;;;5014142;28;20201;-42
2023/09/12 05:42:31;;;;;;;10.77;8.53;;;25.30;54.60;;;;;;5004759;28;20618;-44
2023/09/12 05:44:56;;;;;;;11.20;8.60;;;25.30;54.60;;;;;;5005134;28;20472;-45
2023/09/12 05:47:22;;;;;;;9.40;8.50;;;25.40;54.50;;;;;;5006118;28;20194;-44
2023/09/12 05:49:48;;;;;;;9.00;7.87;;;25.40;54.70;;;;;;5005072;28;20259;-42
2023/09/12 05:52:14;;;;;;;13.60;8.87;;;25.20;54.70;;;;;;5004683;28;20607;-45
2023/09/12 05:54:43;;;;;;;10.90;8.93;;;25.00;55.50;;;;;;5002510;28;20508;-42
2023/09/12 05:57:10;;;;;;;10.03;8.53;;;25.10;55.60;;;;;;5015717;28;20240;-44
2023/09/12 05:59:37;;;;;;;12.87;7.77;;;25.20;55.30;;;;;;5001464;28;20435;-45
2023/09/12 06:02:05;;;;;;;13.17;8.40;;;25.30;54.90;;;;;;5009971;28;20499;-43
2023/09/12 06:04:31;;;;;;;12.03;8.80;;;25.20;55.20;;;;;;5004502;28;20458;-44
2023/09/12 06:06:57;;;;;;;11.77;8.07;;;25.30;55.10;;;;;;5012300;28;20483;-43
2023/09/12 06:09:23;;;;;;;12.57;8.57;;;25.00;55.40;;;;;;5012710;28;20529;-47
2023/09/12 06:11:48;;;;;;;13.77;8.77;;;24.60;56.40;;;;;;5013790;28;20201;-48
2023/09/12 06:14:14;;;;;;;15.80;9.30;;;24.40;56.60;;;;;;5010232;28;20202;-47
2023/09/12 06:16:40;;;;;;;10.87;8.63;;;24.40;57.00;;;;;;5013687;28;20566;-44
2023/09/12 06:19:05;;;;;;;13.80;9.03;;;24.50;56.90;;;;;;5015275;28;20717;-44
2023/09/12 06:21:31;;;;;;;10.60;8.97;;;24.50;57.10;;;;;;5013565;28;20870;-44
2023/09/12 06:24:17;;;;;;;13.03;8.80;;;24.70;56.80;;;;;;5013178;28;20611;-44
2023/09/12 06:26:43;;;;;;;12.40;9.20;;;24.80;56.70;;;;;;5014748;28;20186;-45
2023/09/12 06:29:08;;;;;;;8.83;7.83;;;25.00;56.30;;;;;;5009347;28;21101;-49
2023/09/12 06:31:35;;;;;;;10.77;7.83;;;25.10;56.10;;;;;;5012379;28;20480;-44
2023/09/12 06:34:01;;;;;;;13.60;9.00;;;25.20;55.90;;;;;;5013571;28;20285;-45
2023/09/12 06:36:29;;;;;;;14.43;8.70;;;25.30;55.80;;;;;;5012427;28;20933;-48
2023/09/12 06:38:57;;;;;;;11.93;8.50;;;25.20;56.10;;;;;;5013152;28;20455;-44
2023/09/12 06:41:23;;;;;;;10.07;8.70;;;24.70;56.80;;;;;;5008833;28;20447;-46
2023/09/12 06:43:49;;;;;;;13.57;8.77;;;24.30;58.10;;;;;;5007787;28;20551;-45
2023/09/12 06:46:17;;;;;;;13.43;9.20;;;24.50;58.00;;;;;;5010996;28;20449;-44
2023/09/12 06:48:45;;;;;;;12.40;8.77;;;25.00;57.30;;;;;;5002028;28;20194;-45
2023/09/12 06:51:12;;;;;;;17.87;9.53;;;25.20;56.80;;;;;;5006274;28;20737;-47
2023/09/12 06:53:37;;;;;;;15.60;9.23;;;25.40;56.10;;;;;;5011253;28;20500;-45
2023/09/12 06:56:04;;;;;;;10.63;8.80;;;25.70;55.50;;;;;;5008827;28;20433;-43
2023/09/12 06:58:30;;;;;;;12.30;8.57;;;25.90;55.00;;;;;;5013742;28;20260;-42
2023/09/12 07:00:55;;;;;;;10.20;8.80;;;25.90;54.60;;;;;;5010080;28;20770;-43
2023/09/12 07:03:21;;;;;;;10.47;8.57;;;26.00;54.30;;;;;;5011162;28;20240;-42
2023/09/12 07:05:48;;;;;;;14.00;8.40;;;26.10;54.30;;;;;;5013497;28;20240;-42
2023/09/12 07:08:14;;;;;;;11.30;8.63;;;26.10;54.10;;;;;;5005098;28;20201;-42
2023/09/12 07:10:45;;;;;;;13.30;8.57;;;25.90;54.70;;;;;;5011625;28;20492;-45
2023/09/12 07:13:11;;;;;;;15.97;8.17;;;26.00;54.90;;;;;;5010808;28;20197;-44
2023/09/12 07:15:37;;;;;;;14.57;9.47;;;25.90;54.80;;;;;;5008011;28;20455;-44
2023/09/12 07:18:03;;;;;;;9.37;8.47;;;26.10;54.60;;;;;;5012174;28;20197;-43
2023/09/12 07:20:28;;;;;;;10.77;8.10;;;26.20;54.40;;;;;;5013804;28;20277;-47
2023/09/12 07:22:54;;;;;;;9.90;8.37;;;26.20;54.20;;;;;;5000834;28;20197;-43
2023/09/12 07:25:23;;;;;;;14.07;8.83;;;26.30;54.80;;;;;;5012792;28;20273;-42
2023/09/12 07:27:49;;;;;;;13.43;8.30;;;26.30;54.90;;;;;;5012911;28;20205;-43
2023/09/12 07:30:15;;;;;;;11.47;8.03;;;26.60;54.20;;;;;;5009194;28;20488;-44
2023/09/12 07:32:40;;;;;;;10.40;8.70;;;26.80;53.40;;;;;;5008266;28;20926;-44
2023/09/12 07:35:06;;;;;;;9.27;8.10;;;26.90;53.30;;;;;;5007639;28;20208;-45
2023/09/12 07:37:32;;;;;;;14.50;8.53;;;27.10;53.30;;;;;;5012679;28;20194;-45
2023/09/12 07:39:57;;;;;;;14.27;8.90;;;27.30;52.90;;;;;;5007798;28;20447;-45
2023/09/12 07:42:24;;;;;;;10.27;7.60;;;27.60;52.70;;;;;;5008936;28;20251;-44
2023/09/12 07:44:50;;;;;;;13.23;10.10;;;27.80;51.90;;;;;;5012223;28;20285;-45
2023/09/12 07:47:15;;;;;;;12.63;8.87;;;27.80;51.80;;;;;;5011647;28;20991;-44
2023/09/12 07:49:41;;;;;;;16.23;9.00;;;27.70;51.90;;;;;;5011596;28;20218;-44
2023/09/12 07:52:07;;;;;;;11.50;8.80;;;27.40;52.60;;;;;;5009227;28;20187;-44
2023/09/12 07:54:32;;;;;;;18.33;10.50;;;27.20;52.80;;;;;;5010245;28;20198;-46
2023/09/12 07:56:58;;;;;;;15.30;9.37;;;27.00;53.20;;;;;;4982496;28;20193;-44
2023/09/12 07:59:25;;;;;;;11.60;8.17;;;26.80;53.60;;;;;;5005582;28;20186;-48
2023/09/12 08:01:51;;;;;;;13.03;8.87;;;27.00;53.40;;;;;;5003619;28;20230;-44
2023/09/12 08:04:17;;;;;;;10.97;9.20;;;27.00;52.70;;;;;;5002942;28;20474;-43
2023/09/12 08:06:43;;;;;;;9.40;7.93;;;27.10;53.10;;;;;;5010652;28;20859;-44
2023/09/12 08:09:09;;;;;;;16.07;9.00;;;27.00;53.30;;;;;;5012038;28;20209;-47
2023/09/12 08:11:35;;;;;;;16.63;9.30;;;27.30;53.00;;;;;;5012289;28;20202;-44
2023/09/12 08:14:01;;;;;;;10.30;8.30;;;27.20;53.50;;;;;;5007160;28;20431;-47
2023/09/12 08:16:27;;;;;;;9.83;8.53;;;27.20;53.40;;;;;;5009007;28;20692;-48
2023/09/12 08:18:52;;;;;;;10.73;8.63;;;27.20;53.50;;;;;;5011852;28;20199;-46
2023/09/12 08:21:18;;;;;;;12.43;9.10;;;27.50;53.60;;;;;;4994356;28;20194;-48
2023/09/12 08:23:43;;;;;;;11.97;9.10;;;27.80;52.80;;;;;;5010934;28;20201;-45
2023/09/12 08:26:10;;;;;;;9.97;8.97;;;28.00;52.60;;;;;;5009081;28;20198;-43
2023/09/12 08:28:36;;;;;;;13.77;9.47;;;27.90;51.70;;;;;;5002121;28;20199;-47
2023/09/12 08:31:01;;;;;;;9.93;8.93;;;27.90;52.10;;;;;;5007302;28;20509;-43
2023/09/12 08:33:27;;;;;;;13.73;9.40;;;28.30;51.60;;;;;;5008874;28;20292;-44
2023/09/12 08:35:53;;;;;;;10.10;9.03;;;28.60;50.80;;;;;;5010143;28;20285;-45
2023/09/12 08:38:18;;;;;;;10.20;9.07;;;28.90;50.10;;;;;;5011942;28;20252;-44
2023/09/12 08:40:53;;;;;;;10.20;9.23;;;29.10;49.40;;;;;;5008616;28;20193;-44
2023/09/12 08:43:20;;;;;;;12.00;8.63;;;29.20;48.90;;;;;;5012096;28;20189;-43
2023/09/12 08:45:47;;;;;;;10.17;8.73;;;29.10;48.90;;;;;;5011233;28;20425;-44
2023/09/12 08:48:13;;;;;;;10.97;9.47;;;29.20;48.30;;;;;;5008132;28;20432;-49
2023/09/12 08:50:39;;;;;;;15.83;9.00;;;29.20;48.70;;;;;;5007880;28;20481;-45
2023/09/12 08:53:05;;;;;;;10.20;8.80;;;29.40;49.40;;;;;;5010968;28;20453;-45
2023/09/12 08:55:38;;;;;;;9.40;8.50;;;29.60;48.60;;;;;;5009131;28;20194;-48
2023/09/12 08:58:05;;;;;;;10.43;8.37;;;29.90;48.10;;;;;;5011771;28;20205;-46
2023/09/12 09:00:31;;;;;;;11.43;9.27;;;30.10;47.20;;;;;;5007948;28;20929;-46
2023/09/12 09:02:57;;;;;;;12.63;9.30;;;30.30;46.50;;;;;;5002847;28;20580;-47
2023/09/12 09:05:24;;;;;;;10.80;9.80;;;30.40;46.20;;;;;;5012007;28;20259;-45
2023/09/12 09:07:51;;;;;;;12.87;11.37;;;30.60;46.20;;;;;;5012886;28;20432;-46
2023/09/12 09:10:18;;;;;;;15.20;10.93;;;30.70;46.90;;;;;;5013901;28;21011;-45
2023/09/12 09:12:46;;;;;;;13.53;11.50;;;30.90;46.60;;;;;;5013187;28;20476;-44
2023/09/12 09:15:28;;;;;;;11.80;10.43;;;30.80;45.80;;;;;;5014125;28;20859;-44
2023/09/12 09:17:55;;;;;;;13.53;10.73;;;31.00;46.30;;;;;;5015741;28;20425;-44
2023/09/12 09:20:29;;;;;;;12.10;10.13;;;31.30;45.60;;;;;;5005682;28;20447;-44
2023/09/12 09:22:59;;;;;;;11.27;10.00;;;31.60;45.10;;;;;;5014552;28;20453;-46
2023/09/12 09:25:25;;;;;;;11.20;10.00;;;31.80;44.90;;;;;;5013742;28;20499;-43
2023/09/12 09:27:51;;;;;;;11.83;10.73;;;32.00;45.00;;;;;;5015152;28;20844;-47
2023/09/12 09:30:18;;;;;;;13.10;12.00;;;32.30;43.80;;;;;;5014913;28;20234;-48
2023/09/12 09:32:45;;;;;;;15.80;13.50;;;32.40;43.80;;;;;;5013243;28;20204;-44
2023/09/12 09:35:11;;;;;;;11.00;10.00;;;32.50;43.50;;;;;;5015636;28;20472;-45
2023/09/12 09:37:38;;;;;;;11.73;10.73;;;32.70;43.00;;;;;;5015036;28;20464;-45
2023/09/12 09:40:06;;;;;;;12.60;11.50;;;32.90;42.60;;;;;;5015389;28;20194;-45
2023/09/12 09:42:32;;;;;;;12.10;10.17;;;32.90;42.40;;;;;;5005909;28;20485;-44
2023/09/12 09:44:57;;;;;;;11.77;10.73;;;32.80;42.10;;;;;;5007737;28;20445;-44
2023/09/12 09:47:23;;;;;;;11.30;10.30;;;33.00;42.30;;;;;;5012745;28;20277;-44
2023/09/12 09:49:51;;;;;;;12.40;10.20;;;33.10;41.80;;;;;;5005528;28;20218;-44
2023/09/12 09:52:26;;;;;;;10.50;9.60;;;33.40;41.40;;;;;;5010250;28;20190;-44
2023/09/12 09:54:52;;;;;;;13.40;9.40;;;33.60;41.50;;;;;;5004629;28;20444;-46
2023/09/12 09:57:17;;;;;;;10.80;9.90;;;33.70;41.00;;;;;;4999958;28;20940;-44
2023/09/12 09:59:51;;;;;;;10.50;9.60;;;33.90;41.00;;;;;;5008332;28;20221;-46
2023/09/12 10:02:21;;;;;;;10.90;9.90;;;34.00;40.30;;;;;;5008364;28;20244;-46
2023/09/12 10:04:47;;;;;;;10.87;10.07;;;34.10;40.40;;;;;;5008473;28;20456;-45
2023/09/12 10:07:14;;;;;;;12.07;10.90;;;34.20;40.70;;;;;;5014647;28;20439;-45
2023/09/12 10:09:41;;;;;;;10.43;9.47;;;34.40;39.70;;;;;;5006784;28;20476;-45
2023/09/12 10:12:07;;;;;;;10.60;9.70;;;34.50;38.70;;;;;;5006186;28;20811;-47
2023/09/12 10:14:35;;;;;;;10.40;9.50;;;34.70;38.70;;;;;;5011834;28;20920;-44
2023/09/12 10:17:02;;;;;;;9.80;8.90;;;34.90;38.70;;;;;;5009749;28;20503;-43
2023/09/12 10:19:47;;;;;;;10.87;10.00;;;35.00;38.60;;;;;;5006231;28;20981;-44
2023/09/12 10:22:21;;;;;;;10.47;9.70;;;35.20;37.80;;;;;;5012152;28;20932;-43
2023/09/12 10:24:48;;;;;;;11.93;9.30;;;35.40;38.30;;;;;;5013718;28;20464;-43
2023/09/12 10:27:15;;;;;;;14.63;10.13;;;35.60;38.00;;;;;;5010948;28;20803;-44
2023/09/12 10:29:40;;;;;;;10.67;9.60;;;35.90;37.60;;;;;;5011131;28;20489;-48
2023/09/12 10:32:06;;;;;;;11.50;10.50;;;36.00;37.70;;;;;;5009774;28;20452;-44
2023/09/12 10:34:32;;;;;;;9.80;9.00;;;36.30;37.70;;;;;;5012956;28;20194;-50
2023/09/12 10:37:04;;;;;;;11.67;9.50;;;36.40;36.70;;;;;;5011229;28;20657;-49
2023/09/12 10:39:31;;;;;;;11.10;10.10;;;36.60;36.70;;;;;;5011866;28;20428;-49
2023/09/12 10:42:01;;;;;;;11.80;10.07;;;36.80;36.70;;;;;;5008408;28;20476;-49
2023/09/12 10:44:28;;;;;;;10.30;9.37;;;36.90;36.40;;;;;;5008299;28;20462;-46
2023/09/12 10:46:54;;;;;;;10.27;9.27;;;37.10;36.20;;;;;;5012229;28;20803;-46
2023/09/12 10:49:20;;;;;;;10.43;8.10;;;37.20;34.70;;;;;;5010196;28;20472;-48
2023/09/12 10:51:47;;;;;;;11.10;9.10;;;37.20;34.20;;;;;;5009527;28;20190;-46
2023/09/12 10:54:15;;;;;;;10.83;9.50;;;37.20;34.40;;;;;;5009523;28;20567;-49
2023/09/12 10:56:41;;;;;;;9.90;8.80;;;37.30;33.90;;;;;;5010407;28;20455;-45
2023/09/12 10:59:06;;;;;;;9.70;8.80;;;37.30;34.10;;;;;;5003975;28;20923;-47
2023/09/12 11:01:40;;;;;;;9.50;8.60;;;37.40;33.60;;;;;;5003860;28;20189;-46
2023/09/12 11:04:34;;;;;;;9.67;8.30;;;37.40;33.80;;;;;;5008900;28;20196;-49
2023/09/12 11:07:02;;;;;;;10.17;9.10;;;37.50;32.70;;;;;;5000690;28;20460;-45
2023/09/12 11:09:28;;;;;;;10.03;9.20;;;37.60;33.60;;;;;;5006649;28;20847;-46
2023/09/12 11:11:58;;;;;;;9.03;8.20;;;37.70;33.90;;;;;;5013641;28;20428;-47
2023/09/12 11:14:25;;;;;;;12.70;9.73;;;38.00;33.50;;;;;;5013941;28;20197;-48
2023/09/12 11:17:06;;;;;;;10.47;9.37;;;38.00;33.10;;;;;;5007760;28;20539;-44
2023/09/12 11:19:44;;;;;;;9.27;8.40;;;38.20;34.20;;;;;;5003702;28;20514;-44
2023/09/12 11:22:22;;;;;;;10.10;9.20;;;38.20;32.50;;;;;;5003496;28;20444;-47
2023/09/12 11:24:48;;;;;;;9.63;8.70;;;38.40;31.70;;;;;;5005453;28;20444;-46
2023/09/12 11:27:14;;;;;;;8.93;8.23;;;38.30;32.00;;;;;;5012370;28;21001;-45
2023/09/12 11:29:40;;;;;;;8.67;7.87;;;38.40;30.60;;;;;;5007896;28;20488;-46
2023/09/12 11:32:07;;;;;;;10.53;8.03;;;38.40;30.00;;;;;;5011734;28;20201;-46
2023/09/12 11:34:44;;;;;;;9.83;8.93;;;38.50;30.50;;;;;;5009026;28;20198;-44
2023/09/12 11:37:10;;;;;;;9.93;7.93;;;38.70;31.30;;;;;;5011233;28;20446;-44
2023/09/12 11:39:37;;;;;;;9.10;8.20;;;38.70;30.40;;;;;;5003852;28;20441;-48
2023/09/12 11:42:04;;;;;;;9.27;8.57;;;38.90;30.40;;;;;;5005936;28;20450;-45
2023/09/12 11:44:31;;;;;;;9.23;8.57;;;39.00;30.70;;;;;;5008835;28;21018;-45
2023/09/12 11:47:06;;;;;;;9.43;8.73;;;39.20;30.20;;;;;;5009784;28;20803;-46
2023/09/12 11:49:39;;;;;;;10.47;8.10;;;39.20;29.80;;;;;;5010061;28;20834;-47
2023/09/12 11:52:12;;;;;;;8.80;7.87;;;39.00;31.00;;;;;;5007894;28;20454;-44
2023/09/12 11:54:43;;;;;;;8.90;8.03;;;39.20;29.80;;;;;;5005976;28;20923;-44
2023/09/12 11:57:11;;;;;;;10.40;8.23;;;39.40;30.30;;;;;;5007074;28;20506;-46
2023/09/12 11:59:38;;;;;;;9.33;8.27;;;39.50;29.30;;;;;;5011593;28;20455;-43
2023/09/12 12:02:09;;;;;;;8.47;7.67;;;39.50;29.50;;;;;;5010213;28;20807;-46
2023/09/12 12:04:36;;;;;;;9.17;8.37;;;39.60;29.00;;;;;;5007810;28;20440;-48
2023/09/12 12:07:03;;;;;;;9.63;8.63;;;39.60;29.80;;;;;;5005572;28;20445;-49
2023/09/12 12:09:29;;;;;;;9.43;8.70;;;39.70;29.40;;;;;;5003350;28;20488;-45
2023/09/12 12:11:55;;;;;;;8.90;8.20;;;39.90;28.90;;;;;;5009685;28;21022;-47
2023/09/12 12:14:21;;;;;;;8.83;8.00;;;39.90;28.60;;;;;;5011251;28;20196;-51
2023/09/12 12:16:47;;;;;;;10.10;8.20;;;40.00;28.90;;;;;;5011639;28;20215;-48
2023/09/12 12:19:14;;;;;;;9.83;8.83;;;40.10;28.10;;;;;;5011571;28;20197;-47
2023/09/12 12:21:41;;;;;;;9.20;8.40;;;40.00;28.00;;;;;;5008938;28;20428;-48
2023/09/12 12:24:15;;;;;;;9.50;7.30;;;40.20;28.50;;;;;;5009863;28;20447;-46
2023/09/12 12:26:44;;;;;;;8.93;7.30;;;40.30;27.80;;;;;;5011455;28;20447;-50
2023/09/12 12:29:11;;;;;;;10.27;6.30;;;40.20;27.20;;;;;;5006952;28;20444;-50
2023/09/12 12:31:37;;;;;;;7.47;5.90;;;40.20;27.10;;;;;;5005871;28;20797;-49
2023/09/12 12:34:04;;;;;;;7.60;7.00;;;40.10;27.00;;;;;;5002137;28;20538;-50
2023/09/12 12:36:30;;;;;;;7.37;6.70;;;40.20;26.60;;;;;;5009485;28;20586;-46